• Join FlightAware (Why Join?)
  • Login
  • US Flag 
07:03PM EST


 

Airport Tracker/Info


-or-


 

Live Flight TrackerFlight Track Log ✈ N40BZ ✈ 22-Jul-2013 ✈ KHTO - KLOM

Flight Track Log - Related Links

Times and Time Zones

All times are in EDT time to prevent confusion due to time zone crossing. See the N40BZ flight status page for this flight to view local times or setup timezone preferences in your user account.

Time Position Orientation Groundspeed Altitude Reporting Facility
EDT Latitude Longitude Course Direction KTS MPH feet Rate Location/Type
08:42AM 41.0000 -72.2667 270° West 124 143 1,500  Level New York TRACON
08:43AM 41.0000 -72.3167 270° West 129 148 2,400 900 Climbing New York TRACON
08:44AM 41.0000 -72.3500 270° West 127 146 3,400 900 Climbing New York TRACON
08:45AM 40.9833 -72.4000 246° West 130 150 4,300 900 Climbing New York TRACON
08:46AM 40.9833 -72.4500 270° West 126 145 5,300 840 Climbing New York TRACON
08:47AM 40.9667 -72.5000 246° West 136 157 6,000 300 Climbing New York TRACON
08:48AM 40.9667 -72.5500 270° West 169 194 6,000  Level New York TRACON
08:49AM 40.9500 -72.6167 252° West 174 200 6,000  Level New York TRACON
08:50AM 40.9500 -72.6833 270° West 175 201 6,000  Level New York TRACON
08:51AM 40.9333 -72.7500 252° West 174 200 6,000  Level New York TRACON
08:52AM 40.9333 -72.8000 270° West 178 205 6,000  Level New York TRACON
08:53AM 40.9167 -72.8667 252° West 176 203 6,000  Level New York TRACON
08:54AM 40.9167 -72.9333 270° West 174 200 6,000  Level New York TRACON
08:55AM 40.9000 -73.0000 252° West 173 199 6,000  Level New York TRACON
08:56AM 40.9000 -73.0500 270° West 171 197 6,000  Level New York TRACON
08:57AM 40.8833 -73.1167 252° West 172 198 6,000  Level New York TRACON
08:58AM 40.8833 -73.1833 270° West 169 194 6,000  Level New York TRACON
08:59AM 40.8833 -73.2500 270° West 170 196 6,000  Level New York TRACON
09:00AM 40.8667 -73.3000 246° West 168 193 6,000  Level New York TRACON
09:01AM 40.8667 -73.3667 270° West 167 192 6,000  Level New York TRACON
09:02AM 40.8500 -73.4333 252° West 169 194 6,000  Level New York TRACON
09:03AM 40.8500 -73.4833 270° West 171 197 6,000  Level New York TRACON
09:04AM 40.8333 -73.5500 252° West 171 197 6,000  Level New York TRACON
09:05AM 40.8000 -73.5833 217° Southwest 170 196 6,000  Level New York TRACON
09:06AM 40.7667 -73.6333 229° Southwest 169 194 6,000  Level New York TRACON
09:07AM 40.7333 -73.6667 217° Southwest 170 196 6,000  Level New York TRACON
09:08AM 40.6833 -73.7000 207° Southwest 167 192 6,000  Level New York TRACON
09:09AM 40.6500 -73.7500 229° Southwest 151 174 6,000  Level New York TRACON
09:10AM 40.6333 -73.7667 217° Southwest 170 196 6,000 -300 Level New York TRACON
09:11AM 40.5667 -73.8167 210° Southwest 179 206 5,400 -540 Descending New York TRACON
09:12AM 40.5333 -73.8500 217° Southwest 185 213 5,000 -240 Descending New York TRACON
09:13AM 40.4833 -73.8833 207° Southwest 172 198 5,000 -120 Level New York TRACON
09:15AM 40.4370 -73.9124 206° Southwest  Level FlightAware Approximate
09:22AM 40.1751 -74.1041 201° Southwest  Level FlightAware Approximate
09:23AM 40.1346 -74.1244 201° Southwest  Level FlightAware Approximate
09:24AM 40.0941 -74.1446 201° Southwest  Level FlightAware Approximate
09:25AM 40.1006 -74.1850 294° West  Level FlightAware Approximate
09:25AM 40.2000 -74.4500 294° West 177 204 4,000  Level Philadelphia TRACON
09:26AM 40.1179 -74.2369 294° West  Level FlightAware Approximate
09:26AM 40.2000 -74.4833 270° West 177 204 4,000  Level Philadelphia TRACON
09:27AM 40.1353 -74.2888 294° West  Level FlightAware Approximate
09:27AM 40.2167 -74.5500 288° West 178 205 4,000  Level Philadelphia TRACON
09:28AM 40.1526 -74.3408 294° West  Level FlightAware Approximate
09:28AM 40.2167 -74.6167 270° West 177 204 4,000  Level Philadelphia TRACON
09:29AM 40.1699 -74.3928 294° West  Level FlightAware Approximate
09:29AM 40.2333 -74.6833 288° West 178 205 3,800  Level Philadelphia TRACON
09:30AM 40.1872 -74.4448 294° West  Level FlightAware Approximate
09:30AM 40.2333 -74.7500 270° West 192 221 3,300  Level Philadelphia TRACON
09:31AM 40.2500 -74.8167 288° West 190 219 3,000 -360 Descending Philadelphia TRACON
09:32AM 40.2500 -74.8833 270° West 183 211 2,600 -360 Descending Philadelphia TRACON
09:33AM 40.2500 -74.9667 270° West 187 215 2,300 -360 Descending Philadelphia TRACON
09:34AM 40.2500 -75.0167 270° West 184 212 2,000 -180 Descending Philadelphia TRACON
09:35AM 40.2500 -75.0833 270° West 166 191 2,000 -60 Level Philadelphia TRACON
09:36AM 40.2167 -75.1333 229° Southwest 160 184 1,900 -60 Descending Philadelphia TRACON
09:37AM 40.2000 -75.1667 237° Southwest 139 160 1,900 -360 Level Philadelphia TRACON
09:38AM 40.1667 -75.2000 217° Southwest 129 148 1,300 -720 Descending Philadelphia TRACON